Time;durP1;ratioP1;P1;durP2;ratioP2;P2;SDS_P1;SDS_P2;PMS_P1;PMS_P2;Temp;Humidity;BMP_temperature;BMP_pressure;BME280_temperature;BME280_humidity;BME280_pressure;Samples;Min_cycle;Max_cycle;Signal;HPM_P1;HPM_P2
2022/08/12 00:44:13;;;;;;;2.20;1.60;;;10.90;1.40;;;12.37;100.00;95623.84;645534;212;42174;-70
2022/08/12 00:46:55;;;;;;;0.80;0.80;;;10.90;1.40;;;12.34;100.00;95627.95;644025;216;42153;-71
2022/08/12 00:49:37;;;;;;;0.70;0.70;;;10.90;1.40;;;12.31;100.00;95621.23;647682;212;31811;-70
2022/08/12 00:52:18;;;;;;;3.70;1.23;;;10.90;1.40;;;12.25;100.00;95622.22;644548;216;31508;-69
2022/08/12 00:55:04;;;;;;;0.88;0.80;;;10.80;1.40;;;12.17;100.00;95622.80;648807;212;34775;-69
2022/08/12 00:57:47;;;;;;;1.00;0.90;;;10.70;1.40;;;12.10;100.00;95621.62;645910;216;31778;-70
2022/08/12 01:00:28;;;;;;;1.27;1.17;;;10.60;1.40;;;12.01;100.00;95618.41;647240;212;31554;-69
2022/08/12 01:03:09;;;;;;;0.93;0.83;;;10.50;1.40;;;11.96;100.00;95621.61;652005;216;32129;-70
2022/08/12 01:11:28;;;;;;;2.42;1.30;;;10.50;1.40;;;11.94;100.00;95614.43;648054;216;32524;-69
2022/08/12 01:14:10;;;;;;;0.73;0.70;;;10.50;1.40;;;11.89;100.00;95610.83;648103;216;31677;-69
2022/08/12 01:16:51;;;;;;;1.80;0.90;;;10.50;1.40;;;11.90;100.00;95611.20;647010;212;31542;-70
2022/08/12 01:19:33;;;;;;;1.10;0.80;;;10.50;1.40;;;11.85;100.00;95612.57;647513;216;34912;-69
2022/08/12 01:25:02;;;;;;;0.83;0.70;;;10.50;1.40;;;11.93;100.00;95605.71;647002;216;32081;-70
2022/08/12 01:30:19;;;;;;;1.10;0.90;;;10.40;1.40;;;11.85;100.00;95607.95;618346;226;31889;-70
2022/08/12 01:33:01;;;;;;;1.12;0.80;;;10.40;1.40;;;11.78;100.00;95609.45;649724;216;31532;-69
2022/08/12 01:35:51;;;;;;;1.05;0.90;;;10.30;1.40;;;11.71;100.00;95608.36;646546;212;31862;-69
2022/08/12 01:38:32;;;;;;;1.63;1.20;;;10.30;1.40;;;11.68;100.00;95601.62;646418;215;42161;-69
2022/08/12 01:41:15;;;;;;;1.30;1.20;;;10.30;1.40;;;11.69;100.00;95604.80;645751;212;42136;-69
2022/08/12 01:43:59;;;;;;;1.52;1.20;;;10.30;1.40;;;11.67;100.00;95605.06;648669;216;31574;-69
2022/08/12 01:49:31;;;;;;;1.20;1.00;;;10.20;1.40;;;11.68;100.00;95604.77;648962;216;31563;-69
2022/08/12 01:52:12;;;;;;;1.80;1.50;;;10.20;1.40;;;11.68;100.00;95604.00;649757;212;42148;-69
2022/08/12 01:54:54;;;;;;;1.60;1.30;;;10.20;1.40;;;11.65;100.00;95600.05;647718;216;31508;-70
2022/08/12 01:57:40;;;;;;;1.07;0.97;;;10.30;1.40;;;11.66;100.00;95596.34;645836;216;31631;-69
2022/08/12 02:00:20;;;;;;;1.33;1.23;;;10.30;1.40;;;11.69;100.00;95594.37;648583;216;31545;-70
2022/08/12 02:03:07;;;;;;;0.87;0.87;;;10.30;1.40;;;11.65;100.00;95594.18;644887;212;42157;-69
2022/08/12 02:11:43;;;;;;;0.80;0.50;;;10.20;1.40;;;11.43;100.00;95589.63;647294;216;31534;-69
2022/08/12 02:14:59;;;;;;;0.70;0.70;;;10.00;1.40;;;11.27;100.00;95588.71;646838;216;42743;-69
2022/08/12 02:20:37;;;;;;;8.10;1.10;;;9.80;1.40;;;11.07;100.00;95590.26;647392;212;31540;-69
2022/08/12 02:23:18;;;;;;;1.10;1.00;;;9.70;1.40;;;11.00;100.00;95595.56;645110;216;31506;-69
2022/08/12 02:26:01;;;;;;;0.80;0.70;;;9.60;1.40;;;10.92;100.00;95591.91;649126;216;31829;-69
2022/08/12 02:28:42;;;;;;;0.80;0.70;;;9.60;1.40;;;10.94;100.00;95583.83;646768;216;31505;-70
2022/08/12 02:31:26;;;;;;;4.47;1.00;;;9.50;1.40;;;10.88;100.00;95578.54;645479;216;31646;-69
2022/08/12 02:35:51;;;;;;;0.80;0.80;;;9.50;1.40;;;10.88;100.00;95572.89;619136;222;31943;-69
2022/08/12 02:38:33;;;;;;;1.20;0.90;;;9.60;1.40;;;10.88;100.00;95568.77;620479;226;31882;-69
2022/08/12 02:43:52;;;;;;;1.10;1.00;;;9.60;1.40;;;10.86;100.00;95567.06;648698;216;31520;-70
2022/08/12 02:46:36;;;;;;;1.53;0.83;;;9.60;1.40;;;10.88;100.00;95567.90;646638;216;42453;-69
2022/08/12 02:49:18;;;;;;;1.60;0.90;;;9.60;1.40;;;10.88;100.00;95566.33;649378;212;32111;-69
2022/08/12 02:52:00;;;;;;;1.40;0.90;;;9.50;1.40;;;10.87;100.00;95566.56;648177;212;31534;-69
2022/08/12 02:54:42;;;;;;;2.57;0.90;;;9.60;1.40;;;10.96;100.00;95567.30;645696;216;31552;-70
2022/08/12 02:57:26;;;;;;;1.30;1.00;;;9.70;1.40;;;10.97;100.00;95566.22;650778;216;31528;-70
2022/08/12 03:00:10;;;;;;;0.80;0.70;;;9.70;1.40;;;11.00;100.00;95571.84;646175;216;42129;-69
2022/08/12 03:02:53;;;;;;;1.50;1.10;;;9.80;1.40;;;11.09;100.00;95576.65;648603;216;31523;-69
2022/08/12 03:05:39;;;;;;;1.10;0.73;;;9.80;1.40;;;11.21;100.00;95575.75;646566;212;32245;-69
2022/08/12 03:08:21;;;;;;;0.80;0.80;;;9.90;1.40;;;11.19;100.00;95570.64;648711;216;31655;-69
2022/08/12 03:11:04;;;;;;;0.90;0.80;;;9.80;1.40;;;10.91;100.00;95570.48;617336;225;31868;-69
2022/08/12 03:13:51;;;;;;;0.67;0.67;;;9.60;1.40;;;11.02;100.00;95565.47;648337;212;31556;-69
2022/08/12 03:16:33;;;;;;;1.40;1.10;;;9.50;1.40;;;10.90;100.00;95567.27;609901;226;32161;-69
2022/08/12 03:19:15;;;;;;;1.40;1.13;;;9.30;1.40;;;10.74;100.00;95568.55;647989;216;32067;-69
2022/08/12 03:22:11;;;;;;;1.45;1.00;;;9.20;1.40;;;10.69;100.00;95566.96;645113;216;31493;-69
2022/08/12 03:24:44;;;;;;;1.23;0.95;;;9.20;1.40;;;10.65;100.00;95566.24;649677;216;42099;-69
2022/08/12 03:27:25;;;;;;;2.03;0.80;;;9.20;1.40;;;10.65;100.00;95568.45;644851;216;31579;-71
2022/08/12 03:30:08;;;;;;;1.57;0.80;;;9.10;1.40;;;10.60;100.00;95570.50;647123;216;31631;-69
2022/08/12 03:32:49;;;;;;;1.53;1.37;;;9.20;1.40;;;10.64;100.00;95572.55;646930;216;34773;-69
2022/08/12 03:38:27;;;;;;;0.70;0.70;;;9.10;1.40;;;10.56;100.00;95569.03;647370;212;31503;-69
2022/08/12 04:00:48;;;;;;;1.45;1.35;;;9.30;1.40;;;10.55;100.00;95577.63;644411;216;31588;-69
2022/08/12 04:06:20;;;;;;;1.10;0.80;;;9.00;1.40;;;10.35;100.00;95572.07;644738;212;32163;-70
2022/08/12 04:08:58;;;;;;;1.80;1.00;;;8.90;1.40;;;10.49;100.00;95568.14;645522;216;31696;-69
2022/08/12 04:14:30;;;;;;;1.80;1.10;;;8.90;1.40;;;10.28;100.00;95564.30;624854;222;31866;-69
2022/08/12 04:17:12;;;;;;;0.70;0.60;;;8.90;1.40;;;10.31;100.00;95561.10;644625;216;31631;-70
2022/08/12 04:19:55;;;;;;;1.00;1.00;;;8.80;1.40;;;10.21;100.00;95562.00;649648;216;31521;-69
2022/08/12 04:22:36;;;;;;;1.20;1.10;;;8.70;1.40;;;10.21;100.00;95564.94;645408;212;31534;-70
2022/08/12 04:25:18;;;;;;;0.90;0.70;;;8.70;1.40;;;10.22;100.00;95564.97;647731;216;31530;-69
2022/08/12 04:28:02;;;;;;;1.27;1.13;;;8.70;1.40;;;10.29;100.00;95571.70;620610;226;31851;-69
2022/08/12 04:30:45;;;;;;;0.90;0.90;;;8.80;1.40;;;10.27;100.00;95569.24;647455;216;31550;-69
2022/08/12 04:35:51;;;;;;;1.80;1.20;;;8.90;1.40;;;10.41;100.00;95576.57;647952;216;42438;-69
2022/08/12 04:38:37;;;;;;;2.00;1.23;;;9.00;1.40;;;10.46;100.00;95570.92;647836;216;31895;-69
2022/08/12 04:41:18;;;;;;;0.90;0.90;;;9.10;1.40;;;10.49;100.00;95573.79;646262;216;31494;-69
2022/08/12 04:44:02;;;;;;;1.37;1.00;;;9.10;1.40;;;10.57;100.00;95574.98;649817;216;31588;-69
2022/08/12 04:46:44;;;;;;;1.30;1.00;;;9.20;1.40;;;10.67;100.00;95577.36;621832;226;31857;-70
2022/08/12 04:49:28;;;;;;;1.30;1.20;;;9.30;1.40;;;10.79;100.00;95571.41;646034;212;31505;-69
2022/08/12 04:52:10;;;;;;;1.40;1.10;;;9.40;1.40;;;10.93;100.00;95571.55;648103;216;31640;-69
2022/08/12 04:54:55;;;;;;;1.37;1.10;;;9.50;1.40;;;10.97;100.00;95573.30;646892;212;31638;-69
2022/08/12 04:57:37;;;;;;;1.77;1.30;;;9.60;1.40;;;11.05;100.00;95574.56;646662;216;31573;-69
2022/08/12 05:00:19;;;;;;;1.50;1.00;;;9.70;1.40;;;11.26;100.00;95572.56;648027;216;31555;-69
2022/08/12 05:03:04;;;;;;;1.10;1.10;;;9.80;1.40;;;11.31;100.00;95576.88;646734;216;31677;-69
2022/08/12 05:05:46;;;;;;;1.50;1.40;;;9.90;1.40;;;11.41;100.00;95578.17;647461;212;31519;-69
2022/08/12 05:08:30;;;;;;;0.83;0.83;;;10.10;1.40;;;11.50;100.00;95576.48;650289;216;32666;-70
2022/08/12 05:11:12;;;;;;;1.20;1.20;;;10.20;1.40;;;11.64;100.00;95579.11;643964;216;31604;-70
2022/08/12 05:13:58;;;;;;;1.63;1.53;;;10.30;1.40;;;11.79;100.00;95578.66;646532;216;33067;-70
2022/08/12 05:16:39;;;;;;;1.53;1.20;;;10.50;1.40;;;11.86;100.00;95582.39;634901;216;32890;-70
2022/08/12 05:19:21;;;;;;;0.75;0.73;;;10.60;1.40;;;12.06;100.00;95586.64;619501;226;32052;-70
2022/08/12 05:22:03;;;;;;;2.10;1.50;;;10.70;1.40;;;12.21;100.00;95586.27;647585;216;31584;-69
2022/08/12 05:24:46;;;;;;;2.20;1.50;;;10.80;1.40;;;12.24;100.00;95585.66;646160;216;42618;-69
2022/08/12 05:27:26;;;;;;;1.58;1.48;;;10.80;1.40;;;12.36;100.00;95587.17;650251;212;31577;-69
2022/08/12 05:30:09;;;;;;;2.37;2.17;;;10.90;1.40;;;12.44;100.00;95583.78;641792;220;32461;-70
2022/08/12 05:32:51;;;;;;;1.47;1.20;;;11.00;1.40;;;12.65;100.00;95587.03;646688;216;31539;-69
2022/08/12 05:35:51;;;;;;;6.07;2.10;;;11.30;1.40;;;12.89;100.00;95586.12;618085;222;32252;-69
2022/08/12 05:41:20;;;;;;;2.30;1.70;;;11.80;1.40;;;13.31;100.00;95590.68;643908;216;35086;-69
2022/08/12 05:46:36;;;;;;;3.50;1.90;;;12.20;1.40;;;13.70;100.00;95587.90;647690;216;32126;-72
2022/08/12 05:49:18;;;;;;;1.40;1.30;;;12.50;1.40;;;13.96;100.00;95583.41;648769;212;31549;-70
2022/08/12 05:52:08;;;;;;;3.08;1.70;;;12.70;1.40;;;14.15;100.00;95579.59;647471;216;41610;-70
2022/08/12 05:54:50;;;;;;;3.33;2.10;;;12.90;1.40;;;14.40;100.00;95582.86;647978;216;31532;-69
2022/08/12 05:57:31;;;;;;;1.40;1.30;;;13.00;1.40;;;14.62;100.00;95580.22;647884;216;33167;-69
2022/08/12 06:00:15;;;;;;;1.42;1.33;;;13.30;1.40;;;14.78;100.00;95578.57;645296;216;31977;-72
2022/08/12 06:02:59;;;;;;;3.83;2.30;;;13.50;1.40;;;15.01;100.00;95579.84;647996;216;35558;-69
2022/08/12 06:05:37;;;;;;;1.90;1.80;;;13.70;1.40;;;15.11;100.00;95583.23;645003;216;31693;-69
2022/08/12 06:08:19;;;;;;;2.28;2.03;;;13.70;1.40;;;15.22;100.00;95575.42;649134;216;38466;-69
2022/08/12 06:11:03;;;;;;;2.20;1.77;;;13.90;1.40;;;15.41;100.00;95578.73;647046;212;32732;-70
2022/08/12 06:13:44;;;;;;;2.25;1.50;;;14.10;1.40;;;15.55;100.00;95577.25;646140;216;31575;-68
2022/08/12 06:16:25;;;;;;;4.05;2.28;;;14.30;1.40;;;15.71;100.00;95577.78;637099;216;31926;-68
2022/08/12 06:19:09;;;;;;;5.10;1.80;;;14.40;1.40;;;15.92;100.00;95577.92;644421;212;31568;-68
2022/08/12 06:21:50;;;;;;;1.48;1.37;;;14.60;1.40;;;16.03;100.00;95580.11;619366;226;31858;-68
2022/08/12 06:24:32;;;;;;;1.45;1.23;;;14.70;1.40;;;16.24;100.00;95589.59;646109;216;31485;-68
2022/08/12 06:29:51;;;;;;;2.90;1.50;;;15.20;1.40;;;16.58;100.00;95575.73;646921;216;31660;-68
2022/08/12 06:32:33;;;;;;;1.58;1.37;;;15.30;1.40;;;16.79;100.00;95585.00;647357;212;31511;-68
2022/08/12 06:35:51;;;;;;;2.45;1.50;;;15.50;1.40;;;16.95;100.00;95584.08;646287;216;31604;-68
2022/08/12 06:38:33;;;;;;;1.67;1.50;;;15.70;1.40;;;17.19;100.00;95583.37;644900;216;31602;-68
2022/08/12 06:44:02;;;;;;;1.60;1.50;;;16.20;1.40;;;17.64;100.00;95578.70;648826;212;31637;-68
2022/08/12 06:46:44;;;;;;;2.17;1.45;;;16.40;1.40;;;17.73;100.00;95572.68;616955;226;31992;-68
2022/08/12 06:49:27;;;;;;;1.60;1.40;;;16.40;1.40;;;17.98;100.00;95574.86;644739;216;31652;-68
2022/08/12 06:52:08;;;;;;;5.47;1.53;;;16.80;1.40;;;18.18;100.00;95579.97;646855;216;31685;-68
2022/08/12 06:54:54;;;;;;;4.50;1.55;;;17.10;1.40;;;18.30;100.00;95578.16;645377;216;31554;-68
2022/08/12 06:57:34;;;;;;;2.20;1.50;;;17.20;1.40;;;18.48;100.00;95574.58;647339;216;31598;-68
2022/08/12 07:02:50;;;;;;;1.70;1.60;;;17.40;1.40;;;18.72;100.00;95573.01;620053;225;32455;-68
2022/08/12 07:05:32;;;;;;;2.65;2.45;;;17.30;1.40;;;18.89;100.00;95574.09;647964;212;31574;-68
2022/08/12 07:08:15;;;;;;;3.78;1.90;;;17.50;1.40;;;19.13;100.00;95564.22;644899;215;31540;-69
2022/08/12 07:10:58;;;;;;;2.05;1.70;;;17.80;1.40;;;19.26;100.00;95566.42;648120;216;31497;-68
2022/08/12 07:16:14;;;;;;;1.45;1.30;;;17.90;1.40;;;19.53;100.00;95564.24;637092;212;31672;-68
2022/08/12 07:18:57;;;;;;;1.83;1.20;;;18.10;1.40;;;19.63;99.28;95565.37;647456;216;31574;-68
2022/08/12 07:21:38;;;;;;;1.67;1.12;;;18.40;1.40;;;19.88;98.58;95570.34;649138;216;31562;-68
2022/08/12 07:24:21;;;;;;;1.40;1.30;;;18.50;1.40;;;20.04;93.36;95564.47;645177;216;31553;-68
2022/08/12 07:27:03;;;;;;;1.80;1.20;;;18.80;1.40;;;20.23;92.09;95567.40;646688;216;31531;-68
2022/08/12 07:29:46;;;;;;;3.15;1.20;;;19.00;1.40;;;20.37;94.03;95565.39;646283;212;31567;-68
2022/08/12 07:35:52;;;;;;;2.10;1.23;;;19.30;1.40;;;20.69;91.74;95563.98;647670;212;31704;-70
2022/08/12 07:38:33;;;;;;;2.53;1.15;;;19.30;1.40;;;20.85;88.64;95564.41;648910;216;31550;-68
2022/08/12 07:41:15;;;;;;;7.00;1.70;;;19.60;1.40;;;20.98;86.72;95567.47;646950;216;31514;-69
2022/08/12 07:43:56;;;;;;;1.52;1.33;;;19.80;1.40;;;21.07;85.79;95569.63;645115;216;42682;-68
2022/08/12 07:46:39;;;;;;;1.65;1.00;;;19.90;1.40;;;21.29;84.49;95570.80;644648;212;31604;-69
2022/08/12 07:49:23;;;;;;;3.60;1.30;;;20.10;1.40;;;21.37;81.07;95571.53;646557;216;31978;-69
2022/08/12 07:52:02;;;;;;;0.90;0.90;;;20.20;1.40;;;21.63;83.76;95573.09;647686;216;31556;-70
2022/08/12 07:54:44;;;;;;;1.77;1.52;;;20.40;1.40;;;21.67;83.10;95572.97;647048;212;31505;-69
2022/08/12 07:57:26;;;;;;;1.60;1.30;;;20.50;1.40;;;21.70;83.26;95579.66;645032;216;31529;-69
2022/08/12 08:00:09;;;;;;;2.20;1.42;;;20.50;1.40;;;21.83;81.79;95579.89;646355;212;31507;-70
2022/08/12 08:02:54;;;;;;;1.48;1.20;;;20.40;1.40;;;21.86;82.96;95574.77;645379;212;31643;-70
2022/08/12 08:05:38;;;;;;;2.00;1.30;;;20.60;1.40;;;22.17;83.82;95572.15;647110;215;31709;-69
2022/08/12 08:08:19;;;;;;;1.40;1.30;;;20.90;1.40;;;22.06;82.21;95570.13;648002;216;42158;-68
2022/08/12 08:13:51;;;;;;;3.03;1.42;;;20.80;1.40;;;22.45;81.75;95570.65;647360;216;31600;-70
2022/08/12 08:16:35;;;;;;;1.50;1.40;;;21.10;1.40;;;22.52;78.45;95567.11;645944;216;31602;-69
2022/08/12 08:19:22;;;;;;;2.10;1.60;;;21.30;1.40;;;22.71;79.27;95572.22;645552;212;32263;-69
2022/08/12 08:21:57;;;;;;;3.22;1.50;;;21.60;1.40;;;22.82;77.11;95567.17;648855;216;31650;-68
2022/08/12 08:24:57;;;;;;;1.43;1.30;;;21.80;1.40;;;22.99;76.82;95561.84;647196;216;31694;-69
2022/08/12 08:27:44;;;;;;;1.73;1.30;;;21.80;1.40;;;23.38;75.98;95558.48;646450;212;31512;-69
2022/08/12 08:30:25;;;;;;;3.70;1.45;;;22.20;1.40;;;23.54;72.59;95561.39;646652;216;32043;-69
2022/08/12 08:35:52;;;;;;;4.00;1.30;;;22.60;1.40;;;24.12;72.17;95557.75;645738;216;31844;-68
2022/08/12 08:38:33;;;;;;;2.60;1.20;;;22.60;1.40;;;24.15;70.81;95560.98;647233;216;31547;-68
2022/08/12 08:44:00;;;;;;;1.60;1.20;;;23.00;1.40;;;24.14;67.60;95561.08;644880;216;32564;-69
2022/08/12 08:46:37;;;;;;;2.20;1.20;;;22.90;1.40;;;24.36;66.29;95562.34;646763;216;31559;-68
2022/08/12 08:49:21;;;;;;;1.20;1.10;;;23.00;1.40;;;24.25;66.83;95558.02;644004;212;32080;-69
2022/08/12 08:52:05;;;;;;;1.30;1.00;;;23.30;1.40;;;24.07;65.34;95563.21;643990;216;31503;-70
2022/08/12 08:54:48;;;;;;;1.23;1.12;;;23.00;1.40;;;24.11;67.56;95560.17;646705;216;31494;-68
2022/08/12 08:57:28;;;;;;;1.50;1.40;;;23.20;1.40;;;24.72;65.43;95555.14;648627;212;31627;-68
2022/08/12 09:00:14;;;;;;;2.72;1.20;;;23.70;1.40;;;25.23;66.08;95554.76;647807;212;31558;-69
2022/08/12 09:02:56;;;;;;;2.30;0.90;;;24.30;1.40;;;25.46;63.42;95564.98;646572;212;31586;-69
2022/08/12 09:05:39;;;;;;;1.52;1.27;;;24.50;1.40;;;24.66;61.83;95567.08;646322;216;31584;-68
2022/08/12 09:08:21;;;;;;;1.60;1.20;;;23.50;1.40;;;25.04;61.28;95569.31;619439;226;42498;-68
2022/08/12 09:13:26;;;;;;;1.20;1.10;;;24.00;1.40;;;25.50;63.15;95560.41;646682;216;32138;-68
2022/08/12 09:15:57;;;;;;;3.28;1.05;;;24.90;1.40;;;25.42;59.87;95562.81;645862;216;42236;-68
2022/08/12 09:18:39;;;;;;;1.20;1.10;;;26.10;1.40;;;26.84;55.14;95565.23;646205;212;32050;-69
2022/08/12 09:21:20;;;;;;;3.20;1.23;;;28.30;1.40;;;28.27;55.89;95557.06;646529;216;31548;-69
2022/08/12 09:24:03;;;;;;;1.55;1.20;;;29.70;1.40;;;28.81;51.11;95555.43;646453;216;31572;-69
2022/08/12 09:29:20;;;;;;;1.45;1.00;;;31.10;1.40;;;30.46;47.74;95546.58;644873;212;34012;-69
2022/08/12 09:32:05;;;;;;;1.70;0.90;;;31.20;1.40;;;31.72;45.50;95549.99;646062;212;31518;-68
2022/08/12 09:35:51;;;;;;;1.20;0.90;;;29.20;1.40;;;31.61;50.08;95542.89;645313;216;31596;-69
2022/08/12 09:38:33;;;;;;;2.60;1.10;;;31.10;1.40;;;29.72;45.72;95555.20;646927;216;31571;-69
2022/08/12 09:41:15;;;;;;;1.40;1.30;;;27.90;1.40;;;26.79;49.69;95553.52;646543;216;31543;-69
2022/08/12 09:46:44;;;;;;;1.35;1.25;;;27.90;1.40;;;28.79;48.06;95545.92;646541;216;31657;-69
2022/08/12 09:49:26;;;;;;;2.00;1.52;;;29.30;1.40;;;29.28;47.37;95544.56;646635;216;31711;-69
2022/08/12 09:52:14;;;;;;;1.80;0.80;;;29.70;1.40;;;28.71;47.68;95549.18;645886;212;31646;-76
2022/08/12 09:55:04;;;;;;;2.15;1.10;;;28.10;1.40;;;27.98;49.56;95548.12;646459;216;31839;-69
2022/08/12 09:57:45;;;;;;;2.50;0.90;;;27.00;1.40;;;28.27;48.91;95550.81;647805;212;31517;-68
2022/08/12 10:00:26;;;;;;;0.90;0.77;;;28.60;1.40;;;29.71;45.85;95547.22;645925;216;32145;-69
2022/08/12 10:03:09;;;;;;;1.30;1.20;;;29.70;1.40;;;32.56;44.38;95540.55;646278;216;31492;-69
2022/08/12 10:05:50;;;;;;;2.40;1.10;;;31.40;1.40;;;30.81;43.25;95538.59;647655;216;31675;-69
2022/08/12 10:08:32;;;;;;;2.20;1.08;;;29.90;1.40;;;33.60;43.03;95532.55;645498;216;32377;-69
2022/08/12 10:14:01;;;;;;;1.77;1.48;;;31.90;1.40;;;35.49;40.22;95536.66;646270;212;31628;-69
2022/08/12 10:16:43;;;;;;;2.80;1.37;;;31.70;1.40;;;34.91;40.23;95531.19;634645;216;31657;-70
2022/08/12 10:19:26;;;;;;;1.52;1.37;;;30.90;1.40;;;33.86;38.63;95539.08;645677;216;33429;-70
2022/08/12 10:22:08;;;;;;;1.17;1.08;;;30.00;1.40;;;33.98;40.31;95541.31;645305;212;31506;-69
2022/08/12 10:30:33;;;;;;;2.35;1.10;;;28.40;1.40;;;30.74;44.49;95546.35;646633;216;31580;-69
2022/08/12 10:35:52;;;;;;;1.60;1.50;;;26.90;1.40;;;31.51;43.31;95540.42;645998;216;31742;-68
2022/08/12 10:38:33;;;;;;;3.28;1.60;;;26.90;1.40;;;26.85;48.11;95551.67;645431;212;42983;-69
2022/08/12 10:44:06;;;;;;;1.50;1.12;;;23.90;1.40;;;25.93;51.99;95545.80;647134;216;31606;-69
2022/08/12 10:46:49;;;;;;;2.50;1.30;;;24.00;1.40;;;26.02;52.90;95550.69;645921;212;31480;-69
2022/08/12 10:49:33;;;;;;;2.70;1.50;;;24.10;1.40;;;27.05;53.54;95545.36;645497;216;31916;-69
2022/08/12 10:52:13;;;;;;;1.20;1.10;;;25.00;1.40;;;27.49;50.43;95548.22;646461;216;31706;-68
2022/08/12 10:54:58;;;;;;;1.77;1.23;;;25.60;1.40;;;28.86;47.33;95538.34;617845;226;32434;-70
2022/08/12 10:57:40;;;;;;;1.17;1.08;;;26.90;1.40;;;31.41;45.03;95533.69;646818;216;31587;-69
2022/08/12 11:00:22;;;;;;;2.72;1.00;;;29.40;1.40;;;32.64;44.19;95528.31;646239;216;42104;-68
2022/08/12 11:03:08;;;;;;;1.40;1.30;;;30.80;1.40;;;29.81;43.83;95536.08;645012;216;31544;-69
2022/08/12 11:05:49;;;;;;;1.50;1.40;;;28.20;1.40;;;28.74;46.04;95527.80;647073;216;42456;-70
2022/08/12 11:08:34;;;;;;;2.50;1.30;;;28.20;1.40;;;28.75;46.93;95527.99;647989;216;31532;-69
2022/08/12 11:11:16;;;;;;;1.48;1.23;;;28.10;1.40;;;30.86;41.28;95527.84;646347;215;42714;-69
2022/08/12 11:13:58;;;;;;;1.02;0.93;;;28.70;1.40;;;29.63;44.59;95518.71;647864;216;31718;-69
2022/08/12 11:16:43;;;;;;;1.00;0.90;;;29.10;1.40;;;29.02;43.65;95523.49;636067;216;31728;-69
2022/08/12 11:19:25;;;;;;;3.90;1.40;;;28.00;1.40;;;31.25;42.68;95515.82;645944;216;32302;-69
2022/08/12 11:22:06;;;;;;;1.30;1.20;;;29.20;1.40;;;35.44;38.77;95499.62;646035;216;31521;-69
2022/08/12 11:24:49;;;;;;;1.40;1.05;;;32.30;1.40;;;31.73;38.93;95514.55;645249;216;31756;-69
2022/08/12 11:27:32;;;;;;;2.80;1.20;;;29.50;1.40;;;32.90;39.76;95507.93;647277;216;42786;-69
2022/08/12 11:30:15;;;;;;;1.10;1.00;;;29.10;1.40;;;31.52;40.71;95505.52;646344;216;31635;-69
2022/08/12 11:32:57;;;;;;;1.05;1.00;;;29.50;1.40;;;30.34;43.62;95500.81;647244;216;31550;-67
2022/08/12 11:35:51;;;;;;;2.58;0.90;;;29.70;1.40;;;34.04;38.25;95489.92;646058;216;31645;-69
2022/08/12 11:38:32;;;;;;;1.37;1.20;;;31.60;1.40;;;34.26;36.51;95488.30;619180;226;32367;-69
2022/08/12 11:41:14;;;;;;;1.20;1.10;;;30.20;1.40;;;36.05;36.92;95477.53;631031;221;31794;-69
2022/08/12 11:43:56;;;;;;;2.50;1.10;;;32.80;1.40;;;35.79;36.51;95492.01;646581;216;42213;-69
2022/08/12 11:46:38;;;;;;;1.45;0.80;;;32.60;1.40;;;37.51;34.48;95482.50;647269;216;31505;-70
2022/08/12 11:49:20;;;;;;;0.77;0.77;;;33.60;1.40;;;35.65;33.54;95486.48;646175;212;31536;-70
2022/08/12 11:52:02;;;;;;;1.00;0.90;;;32.00;1.40;;;37.79;33.49;95472.73;645794;212;31628;-69
2022/08/12 11:54:44;;;;;;;1.10;1.00;;;32.90;1.40;;;34.03;33.83;95485.48;620533;226;32327;-70
2022/08/12 11:57:29;;;;;;;0.80;0.80;;;29.80;1.40;;;29.88;38.32;95490.51;646824;212;31554;-69
2022/08/12 12:00:11;;;;;;;1.20;1.10;;;28.10;1.40;;;32.48;36.58;95475.61;646208;212;31555;-69
2022/08/12 12:02:53;;;;;;;1.40;1.15;;;30.10;1.40;;;31.96;36.23;95481.09;647547;216;31957;-69
2022/08/12 12:05:35;;;;;;;1.40;0.90;;;29.40;1.40;;;36.61;34.43;95469.76;645862;216;31945;-74
2022/08/12 12:08:21;;;;;;;2.40;1.00;;;32.60;1.40;;;36.25;32.93;95466.78;646295;216;31646;-70
2022/08/12 12:11:03;;;;;;;2.10;1.15;;;32.30;1.40;;;31.51;35.95;95478.02;645109;216;31518;-69
2022/08/12 12:13:51;;;;;;;1.80;0.90;;;27.40;1.40;;;28.67;41.18;95479.50;619458;226;31857;-69
2022/08/12 12:16:39;;;;;;;2.15;1.20;;;27.70;1.40;;;30.25;39.62;95471.17;609020;226;32133;-68
2022/08/12 12:19:21;;;;;;;3.22;1.30;;;27.50;1.40;;;28.50;41.59;95478.02;646776;216;31580;-69
2022/08/12 12:22:02;;;;;;;1.20;1.02;;;25.20;1.40;;;29.63;41.83;95473.46;645277;216;33070;-69
2022/08/12 12:24:46;;;;;;;1.52;1.10;;;27.60;1.40;;;34.51;37.17;95455.25;647149;216;31676;-68
2022/08/12 12:27:26;;;;;;;1.00;0.90;;;31.90;1.40;;;31.60;37.50;95465.61;645892;212;31636;-69
2022/08/12 12:30:14;;;;;;;1.10;1.00;;;30.20;1.40;;;34.44;35.80;95450.67;618339;226;31822;-70
2022/08/12 12:32:56;;;;;;;0.88;0.88;;;31.50;1.40;;;35.45;34.24;95446.75;647017;216;31516;-69
2022/08/12 12:35:54;;;;;;;1.80;0.90;;;31.80;1.40;;;38.55;32.43;95438.05;646733;216;31597;-70
2022/08/12 12:38:38;;;;;;;1.10;1.00;;;33.90;1.40;;;39.07;31.99;95432.44;647140;212;31654;-69
2022/08/12 12:41:21;;;;;;;1.10;0.90;;;33.30;1.40;;;36.63;32.83;95429.35;645252;216;42480;-70
2022/08/12 12:44:03;;;;;;;1.00;0.70;;;32.30;1.40;;;36.76;33.16;95436.61;645751;212;32370;-69
2022/08/12 12:46:48;;;;;;;1.67;1.00;;;32.30;1.40;;;36.73;31.05;95433.16;646990;216;31519;-70
2022/08/12 12:49:30;;;;;;;2.40;0.90;;;31.20;1.40;;;38.33;29.95;95428.59;647286;212;31550;-70
2022/08/12 12:52:16;;;;;;;2.00;0.80;;;32.30;1.40;;;40.48;29.39;95421.03;644989;212;31626;-70
2022/08/12 12:54:57;;;;;;;0.85;0.85;;;33.70;1.40;;;39.36;30.62;95417.94;646633;216;31559;-69
2022/08/12 12:57:41;;;;;;;2.20;0.98;;;33.40;1.40;;;39.50;28.04;95415.02;645844;216;31505;-70
2022/08/12 13:00:24;;;;;;;0.60;0.60;;;31.10;1.40;;;34.42;33.00;95426.95;645464;216;31617;-70
2022/08/12 13:03:06;;;;;;;2.17;0.90;;;27.80;1.40;;;34.63;32.91;95430.28;647186;216;31512;-70
2022/08/12 13:05:49;;;;;;;1.40;0.75;;;29.70;1.40;;;35.25;32.54;95428.64;646678;212;31617;-69
2022/08/12 13:08:29;;;;;;;0.90;0.80;;;31.30;1.40;;;36.34;30.33;95421.42;646788;216;32021;-70
2022/08/12 13:11:11;;;;;;;1.30;0.70;;;32.20;1.40;;;35.73;31.59;95420.59;617512;226;31873;-70
2022/08/12 13:13:53;;;;;;;1.80;0.90;;;31.20;1.40;;;34.90;31.79;95422.28;645448;216;31526;-70
2022/08/12 13:16:34;;;;;;;3.00;1.10;;;31.00;1.40;;;31.51;34.53;95429.23;636176;212;31751;-70
2022/08/12 13:19:17;;;;;;;1.40;0.90;;;28.50;1.40;;;32.51;35.23;95426.16;646914;216;31530;-70
2022/08/12 13:24:45;;;;;;;2.55;0.80;;;30.50;1.40;;;37.42;31.09;95407.82;645674;216;31555;-70
2022/08/12 13:27:28;;;;;;;0.77;0.77;;;32.00;1.40;;;40.74;28.43;95400.48;646728;216;31527;-69
2022/08/12 13:30:11;;;;;;;0.80;0.80;;;33.80;1.40;;;39.94;28.12;95405.63;645309;216;31580;-69
2022/08/12 13:32:57;;;;;;;1.02;0.70;;;33.70;1.40;;;37.77;29.08;95404.47;619872;222;32047;-68
2022/08/12 13:35:52;;;;;;;1.20;1.10;;;31.80;1.40;;;37.18;30.83;95398.56;647295;216;31521;-70
2022/08/12 13:38:40;;;;;;;1.45;0.73;;;32.10;1.40;;;37.15;28.79;95394.06;646509;216;37498;-70
2022/08/12 13:44:10;;;;;;;2.20;0.80;;;30.50;1.40;;;39.75;28.69;95391.47;645446;216;31573;-70
2022/08/12 13:46:51;;;;;;;1.20;0.75;;;33.20;1.40;;;40.04;26.56;95392.00;647340;216;31900;-68
2022/08/12 13:49:33;;;;;;;1.00;0.60;;;32.40;1.40;;;36.74;29.69;95394.02;646809;216;31587;-70
2022/08/12 13:52:17;;;;;;;0.90;0.80;;;29.70;1.40;;;34.46;31.92;95399.84;646994;216;31646;-70
2022/08/12 13:54:57;;;;;;;0.80;0.80;;;30.00;1.40;;;37.95;28.97;95389.14;618504;226;31951;-70
2022/08/12 13:57:42;;;;;;;2.20;0.70;;;31.60;1.40;;;38.70;27.92;95391.25;646693;216;31572;-70
2022/08/12 14:00:21;;;;;;;0.80;0.80;;;31.80;1.40;;;37.86;29.40;95394.07;646574;216;31580;-70
2022/08/12 14:03:03;;;;;;;1.30;0.70;;;31.60;1.40;;;35.37;29.81;95395.87;646047;212;31528;-70
2022/08/12 14:05:44;;;;;;;1.48;0.68;;;30.80;1.40;;;39.40;27.23;95384.88;646205;216;31505;-70
2022/08/12 14:08:29;;;;;;;0.60;0.60;;;32.30;1.40;;;39.77;27.24;95382.20;647657;216;31503;-70